createdAt,value
2023-03-23T15:58:32.223Z,19.55
2023-03-23T16:01:06.459Z,19.71
2023-03-23T16:03:40.870Z,19.60
2023-03-23T16:06:13.573Z,19.68
2023-03-23T16:08:54.660Z,20.25
2023-03-23T16:11:25.550Z,20.27
2023-03-23T16:13:54.682Z,20.26
2023-03-23T16:16:28.672Z,20.42
2023-03-23T16:18:57.402Z,20.43
2023-03-23T16:21:26.226Z,20.70
2023-03-23T16:23:54.691Z,20.55
2023-03-23T16:26:23.327Z,20.73
2023-03-23T16:28:57.366Z,20.77
2023-03-23T16:31:33.049Z,21.24
2023-03-23T16:34:01.525Z,20.92
2023-03-23T16:36:29.951Z,21.69
2023-03-23T16:38:58.447Z,21.32
2023-03-23T16:41:27.073Z,21.36
2023-03-23T16:43:55.669Z,21.90
2023-03-23T16:46:24.919Z,22.05
2023-03-23T16:48:55.374Z,22.11
2023-03-23T16:51:24.047Z,21.94
2023-03-23T16:53:52.689Z,22.29
2023-03-23T16:56:21.180Z,22.15
2023-03-23T16:58:49.623Z,22.36
2023-03-23T17:01:18.252Z,22.46
2023-03-23T17:03:47.067Z,22.70
2023-03-23T17:06:17.001Z,22.96
2023-03-23T17:08:45.446Z,23.13
2023-03-23T17:11:14.019Z,23.25
2023-03-23T17:13:42.822Z,23.19
2023-03-23T17:16:11.585Z,23.50
2023-03-23T17:18:40.038Z,23.34
2023-03-23T17:21:09.151Z,23.67
2023-03-23T17:23:39.155Z,23.84
2023-03-23T17:26:08.522Z,23.92
2023-03-23T17:28:37.357Z,23.99
2023-03-23T17:31:06.634Z,24.07
2023-03-23T17:33:35.533Z,24.29
2023-03-23T17:36:04.318Z,24.45
2023-03-23T17:38:32.804Z,24.54
2023-03-23T17:41:06.405Z,24.71
2023-03-23T17:43:36.673Z,24.75
2023-03-23T17:46:06.040Z,24.89
2023-03-23T17:48:36.223Z,25.00
2023-03-23T17:51:06.963Z,25.25
2023-03-23T17:53:37.754Z,25.29
2023-03-23T17:56:13.182Z,25.37
2023-03-23T17:58:42.222Z,25.42
2023-03-23T18:01:12.833Z,25.62
2023-03-23T18:03:42.946Z,25.78
2023-03-23T18:06:13.784Z,25.82
2023-03-23T18:08:43.296Z,25.94
2023-03-23T18:11:14.248Z,26.11
2023-03-23T18:13:44.528Z,26.05
2023-03-23T18:16:15.462Z,26.58
2023-03-23T18:18:47.636Z,26.33
2023-03-23T18:21:18.578Z,26.65
2023-03-23T18:23:56.873Z,26.59
2023-03-23T18:26:31.561Z,26.96
2023-03-23T18:29:02.169Z,26.69
2023-03-23T18:31:35.222Z,26.87
2023-03-23T18:34:06.141Z,26.92
2023-03-23T18:36:36.696Z,26.99
2023-03-23T18:39:07.433Z,26.98
2023-03-23T18:41:39.256Z,27.03
2023-03-23T18:44:08.239Z,27.15
2023-03-23T18:46:38.434Z,27.36
2023-03-23T18:49:11.002Z,27.65
2023-03-23T18:51:40.731Z,27.71
2023-03-23T18:54:11.238Z,27.80
2023-03-23T18:56:49.151Z,27.48
2023-03-23T18:59:19.405Z,27.72
2023-03-23T19:01:50.355Z,27.63
2023-03-23T19:04:22.865Z,27.95
2023-03-23T19:06:56.048Z,27.48
2023-03-23T19:09:26.813Z,28.05
2023-03-23T19:11:59.749Z,27.86
2023-03-23T19:14:29.895Z,28.10
2023-03-23T19:17:01.084Z,27.96
2023-03-23T19:19:32.389Z,28.36
2023-03-23T19:22:03.370Z,28.07
2023-03-23T19:24:35.915Z,28.36
2023-03-23T19:27:09.689Z,28.61
2023-03-23T19:29:39.869Z,28.55
2023-03-23T19:32:13.025Z,28.50
2023-03-23T19:37:16.340Z,28.58
2023-03-23T19:39:49.379Z,28.65
2023-03-23T19:42:24.265Z,28.74
2023-03-23T19:44:54.850Z,28.44
2023-03-23T19:47:27.750Z,28.67
2023-03-23T19:50:00.010Z,28.68
2023-03-23T19:52:30.717Z,28.73
2023-03-23T19:55:01.652Z,28.91
2023-03-23T19:57:33.547Z,28.85
2023-03-23T20:00:07.648Z,28.67
2023-03-23T20:02:40.327Z,28.95
2023-03-23T20:05:11.096Z,28.96
2023-03-23T20:07:42.834Z,28.87
2023-03-23T20:10:16.772Z,28.77
2023-03-23T20:12:49.988Z,28.83
2023-03-23T20:15:21.673Z,28.68
2023-03-23T20:17:51.764Z,28.54
2023-03-23T20:20:23.810Z,28.55
2023-03-23T20:22:57.823Z,28.48
2023-03-23T20:25:29.294Z,28.84
2023-03-23T20:28:01.937Z,28.74
2023-03-23T20:30:32.956Z,28.96
2023-03-23T20:33:03.421Z,28.90
2023-03-23T20:35:33.532Z,28.88
2023-03-23T20:38:04.357Z,29.30
2023-03-23T20:40:36.406Z,29.34
2023-03-23T20:43:08.992Z,29.24
2023-03-23T20:45:40.917Z,29.61
2023-03-23T20:48:10.553Z,29.49
2023-03-23T20:50:40.236Z,29.47
2023-03-23T20:53:09.351Z,29.47
2023-03-23T20:55:39.218Z,29.86
2023-03-23T20:58:10.806Z,29.75
2023-03-23T21:00:42.695Z,29.47
2023-03-23T21:03:13.480Z,29.39
2023-03-23T21:05:44.596Z,29.64
2023-03-23T21:08:14.902Z,29.87
2023-03-23T21:10:45.171Z,29.78
2023-03-23T21:13:17.167Z,29.65
2023-03-23T21:15:47.047Z,29.61
2023-03-23T21:18:16.635Z,29.55
2023-03-23T21:20:47.797Z,29.46
2023-03-23T21:23:17.076Z,29.79
2023-03-23T21:25:48.137Z,29.43
2023-03-23T21:28:19.522Z,29.50
2023-03-23T21:30:49.457Z,29.40
2023-03-23T21:33:17.977Z,29.77
2023-03-23T21:35:47.261Z,29.42
2023-03-23T21:38:19.837Z,29.74
2023-03-23T21:40:48.628Z,29.90
2023-03-23T21:43:18.510Z,29.88
2023-03-23T21:45:47.909Z,29.82
2023-03-23T21:48:16.495Z,29.89
2023-03-23T21:50:45.070Z,30.06
2023-03-23T21:53:18.118Z,29.82
2023-03-23T21:55:51.206Z,29.71
2023-03-23T21:58:23.092Z,30.00
2023-03-23T22:00:54.247Z,29.79
2023-03-23T22:03:23.818Z,30.08
2023-03-23T22:05:55.271Z,30.23
2023-03-23T22:08:25.689Z,30.40
2023-03-23T22:11:00.793Z,30.05
2023-03-23T22:13:33.868Z,30.38
2023-03-23T22:16:04.218Z,30.03
2023-03-23T22:18:33.361Z,30.20
2023-03-23T22:21:02.155Z,30.43
2023-03-23T22:23:30.568Z,30.27
2023-03-23T22:25:59.048Z,30.52
2023-03-23T22:28:31.120Z,30.62
2023-03-23T22:31:04.201Z,30.61
2023-03-23T22:33:33.912Z,30.59
2023-03-23T22:36:06.219Z,30.46
2023-03-23T22:38:35.638Z,30.52
2023-03-23T22:41:07.136Z,30.39
2023-03-23T22:43:37.732Z,30.55
2023-03-23T22:46:07.064Z,30.41
2023-03-23T22:48:35.866Z,30.39
2023-03-23T22:51:04.745Z,30.73
2023-03-23T22:53:33.203Z,30.63
2023-03-23T22:56:01.781Z,30.85
2023-03-23T22:58:30.349Z,31.29
2023-03-23T23:01:03.802Z,31.44
2023-03-23T23:03:32.898Z,31.56
2023-03-23T23:06:02.198Z,31.55
2023-03-23T23:08:33.049Z,31.29
2023-03-23T23:11:04.128Z,31.58
2023-03-23T23:13:33.814Z,31.58
2023-03-23T23:16:04.105Z,31.21
2023-03-23T23:18:33.315Z,31.50
2023-03-23T23:21:08.861Z,31.29
2023-03-23T23:23:38.025Z,31.24
2023-03-23T23:26:07.693Z,31.40
2023-03-23T23:28:36.311Z,31.41
2023-03-23T23:31:19.524Z,31.81
2023-03-23T23:33:47.984Z,31.52
2023-03-23T23:36:16.436Z,31.66
2023-03-23T23:38:44.940Z,31.64
2023-03-23T23:41:13.576Z,31.62
2023-03-23T23:43:42.002Z,31.57
2023-03-23T23:46:11.868Z,31.83
2023-03-23T23:48:40.690Z,31.73
2023-03-23T23:51:09.911Z,32.04
2023-03-23T23:53:38.925Z,31.77
2023-03-23T23:56:08.921Z,31.52
2023-03-23T23:58:37.415Z,31.59
